sensor_id;sensor_type;location;lat;lon;timestamp;pressure;altitude;pressure_sealevel;temperature
71463;BMP180;59266;52.608;13.260;2024-02-23T00:01:32;98054.00;;;10.50
71463;BMP180;59266;52.608;13.260;2024-02-23T00:03:58;98060.00;;;10.40
71463;BMP180;59266;52.608;13.260;2024-02-23T00:06:25;98060.00;;;10.50
71463;BMP180;59266;52.608;13.260;2024-02-23T00:08:55;98048.00;;;10.70
71463;BMP180;59266;52.608;13.260;2024-02-23T00:11:23;98049.00;;;10.70
71463;BMP180;59266;52.608;13.260;2024-02-23T00:13:49;98051.00;;;10.70
71463;BMP180;59266;52.608;13.260;2024-02-23T00:16:16;98059.00;;;10.70
71463;BMP180;59266;52.608;13.260;2024-02-23T00:18:43;98071.00;;;10.80
71463;BMP180;59266;52.608;13.260;2024-02-23T00:21:09;98057.00;;;10.80
71463;BMP180;59266;52.608;13.260;2024-02-23T00:23:36;98045.00;;;10.80
71463;BMP180;59266;52.608;13.260;2024-02-23T00:26:03;98060.00;;;10.80
71463;BMP180;59266;52.608;13.260;2024-02-23T00:28:29;98053.00;;;10.80
71463;BMP180;59266;52.608;13.260;2024-02-23T00:30:56;98047.00;;;10.70
71463;BMP180;59266;52.608;13.260;2024-02-23T00:33:22;98058.00;;;10.70
71463;BMP180;59266;52.608;13.260;2024-02-23T00:35:49;98051.00;;;10.70
71463;BMP180;59266;52.608;13.260;2024-02-23T00:38:16;98058.00;;;10.80
71463;BMP180;59266;52.608;13.260;2024-02-23T00:40:43;98053.00;;;10.80
71463;BMP180;59266;52.608;13.260;2024-02-23T00:43:09;98042.00;;;10.60
71463;BMP180;59266;52.608;13.260;2024-02-23T00:45:36;98063.00;;;10.70
71463;BMP180;59266;52.608;13.260;2024-02-23T00:48:02;98059.00;;;10.70
71463;BMP180;59266;52.608;13.260;2024-02-23T00:50:29;98052.00;;;10.70
71463;BMP180;59266;52.608;13.260;2024-02-23T00:52:56;98065.00;;;10.70
71463;BMP180;59266;52.608;13.260;2024-02-23T00:55:22;98054.00;;;10.70
71463;BMP180;59266;52.608;13.260;2024-02-23T00:57:51;98073.00;;;10.70
71463;BMP180;59266;52.608;13.260;2024-02-23T01:00:18;98078.00;;;10.70
71463;BMP180;59266;52.608;13.260;2024-02-23T01:02:44;98083.00;;;10.70
71463;BMP180;59266;52.608;13.260;2024-02-23T01:05:11;98078.00;;;10.80
71463;BMP180;59266;52.608;13.260;2024-02-23T01:07:38;98095.00;;;10.80
71463;BMP180;59266;52.608;13.260;2024-02-23T01:10:05;98098.00;;;10.70
71463;BMP180;59266;52.608;13.260;2024-02-23T01:12:31;98100.00;;;10.70
71463;BMP180;59266;52.608;13.260;2024-02-23T01:14:58;98116.00;;;10.70
71463;BMP180;59266;52.608;13.260;2024-02-23T01:17:28;98124.00;;;10.70
71463;BMP180;59266;52.608;13.260;2024-02-23T01:19:54;98116.00;;;10.70
71463;BMP180;59266;52.608;13.260;2024-02-23T01:22:21;98126.00;;;10.80
71463;BMP180;59266;52.608;13.260;2024-02-23T01:24:48;98139.00;;;10.80
71463;BMP180;59266;52.608;13.260;2024-02-23T01:27:15;98147.00;;;10.90
71463;BMP180;59266;52.608;13.260;2024-02-23T01:29:41;98154.00;;;10.90
71463;BMP180;59266;52.608;13.260;2024-02-23T01:32:08;98137.00;;;11.00
71463;BMP180;59266;52.608;13.260;2024-02-23T01:34:35;98146.00;;;11.00
71463;BMP180;59266;52.608;13.260;2024-02-23T01:37:02;98159.00;;;11.10
71463;BMP180;59266;52.608;13.260;2024-02-23T01:39:29;98159.00;;;11.00
71463;BMP180;59266;52.608;13.260;2024-02-23T01:41:55;98159.00;;;11.10
71463;BMP180;59266;52.608;13.260;2024-02-23T01:44:22;98164.00;;;11.10
71463;BMP180;59266;52.608;13.260;2024-02-23T01:46:49;98170.00;;;11.10
71463;BMP180;59266;52.608;13.260;2024-02-23T01:49:16;98171.00;;;11.10
71463;BMP180;59266;52.608;13.260;2024-02-23T01:51:43;98206.00;;;11.30
71463;BMP180;59266;52.608;13.260;2024-02-23T01:54:10;98201.00;;;11.30
71463;BMP180;59266;52.608;13.260;2024-02-23T01:56:37;98210.00;;;11.30
71463;BMP180;59266;52.608;13.260;2024-02-23T01:59:06;98217.00;;;11.30
71463;BMP180;59266;52.608;13.260;2024-02-23T02:01:33;98225.00;;;11.30
71463;BMP180;59266;52.608;13.260;2024-02-23T02:04:00;98245.00;;;11.30
71463;BMP180;59266;52.608;13.260;2024-02-23T02:06:26;98265.00;;;11.30
71463;BMP180;59266;52.608;13.260;2024-02-23T02:08:53;98265.00;;;11.20
71463;BMP180;59266;52.608;13.260;2024-02-23T02:11:20;98278.00;;;11.20
71463;BMP180;59266;52.608;13.260;2024-02-23T02:13:47;98287.00;;;11.10
71463;BMP180;59266;52.608;13.260;2024-02-23T02:16:14;98294.00;;;11.10
71463;BMP180;59266;52.608;13.260;2024-02-23T02:18:41;98299.00;;;11.00
71463;BMP180;59266;52.608;13.260;2024-02-23T02:21:08;98305.00;;;10.90
71463;BMP180;59266;52.608;13.260;2024-02-23T02:23:34;98310.00;;;10.80
71463;BMP180;59266;52.608;13.260;2024-02-23T02:26:04;98330.00;;;10.90
71463;BMP180;59266;52.608;13.260;2024-02-23T02:28:31;98344.00;;;10.80
71463;BMP180;59266;52.608;13.260;2024-02-23T02:30:57;98357.00;;;10.70
71463;BMP180;59266;52.608;13.260;2024-02-23T02:33:24;98372.00;;;10.70
71463;BMP180;59266;52.608;13.260;2024-02-23T02:35:51;98367.00;;;10.70
71463;BMP180;59266;52.608;13.260;2024-02-23T02:38:18;98375.00;;;10.70
71463;BMP180;59266;52.608;13.260;2024-02-23T02:40:44;98393.00;;;10.50
71463;BMP180;59266;52.608;13.260;2024-02-23T02:43:11;98401.00;;;10.50
71463;BMP180;59266;52.608;13.260;2024-02-23T02:45:37;98407.00;;;10.40
71463;BMP180;59266;52.608;13.260;2024-02-23T02:48:05;98415.00;;;10.40
71463;BMP180;59266;52.608;13.260;2024-02-23T02:50:32;98420.00;;;10.30
71463;BMP180;59266;52.608;13.260;2024-02-23T02:52:58;98414.00;;;10.30
71463;BMP180;59266;52.608;13.260;2024-02-23T02:55:25;98413.00;;;10.30
71463;BMP180;59266;52.608;13.260;2024-02-23T02:57:51;98431.00;;;10.20
71463;BMP180;59266;52.608;13.260;2024-02-23T03:00:18;98434.00;;;10.10
71463;BMP180;59266;52.608;13.260;2024-02-23T03:02:45;98431.00;;;10.00
71463;BMP180;59266;52.608;13.260;2024-02-23T03:05:11;98428.00;;;10.00
71463;BMP180;59266;52.608;13.260;2024-02-23T03:07:38;98455.00;;;9.90
71463;BMP180;59266;52.608;13.260;2024-02-23T03:10:05;98451.00;;;9.90
71463;BMP180;59266;52.608;13.260;2024-02-23T03:12:32;98472.00;;;9.90
71463;BMP180;59266;52.608;13.260;2024-02-23T03:14:58;98477.00;;;9.80
71463;BMP180;59266;52.608;13.260;2024-02-23T03:17:25;98478.00;;;9.70
71463;BMP180;59266;52.608;13.260;2024-02-23T03:19:52;98471.00;;;9.70
71463;BMP180;59266;52.608;13.260;2024-02-23T03:22:19;98481.00;;;9.60
71463;BMP180;59266;52.608;13.260;2024-02-23T03:24:45;98479.00;;;9.50
71463;BMP180;59266;52.608;13.260;2024-02-23T03:27:12;98477.00;;;9.50
71463;BMP180;59266;52.608;13.260;2024-02-23T03:29:39;98482.00;;;9.50
71463;BMP180;59266;52.608;13.260;2024-02-23T03:32:07;98496.00;;;9.50
71463;BMP180;59266;52.608;13.260;2024-02-23T03:34:34;98495.00;;;9.50
71463;BMP180;59266;52.608;13.260;2024-02-23T03:37:01;98493.00;;;9.50
71463;BMP180;59266;52.608;13.260;2024-02-23T03:39:29;98499.00;;;9.50
71463;BMP180;59266;52.608;13.260;2024-02-23T03:41:55;98499.00;;;9.50
71463;BMP180;59266;52.608;13.260;2024-02-23T03:44:22;98513.00;;;9.40
71463;BMP180;59266;52.608;13.260;2024-02-23T03:46:49;98511.00;;;9.40
71463;BMP180;59266;52.608;13.260;2024-02-23T03:49:16;98526.00;;;9.40
71463;BMP180;59266;52.608;13.260;2024-02-23T03:51:43;98521.00;;;9.40
71463;BMP180;59266;52.608;13.260;2024-02-23T03:54:09;98536.00;;;9.30
71463;BMP180;59266;52.608;13.260;2024-02-23T03:56:40;98550.00;;;9.30
71463;BMP180;59266;52.608;13.260;2024-02-23T03:59:08;98559.00;;;9.40
71463;BMP180;59266;52.608;13.260;2024-02-23T04:01:38;98572.00;;;9.40
71463;BMP180;59266;52.608;13.260;2024-02-23T04:04:06;98568.00;;;9.50
71463;BMP180;59266;52.608;13.260;2024-02-23T04:06:34;98578.00;;;9.40
71463;BMP180;59266;52.608;13.260;2024-02-23T04:09:01;98578.00;;;9.40
71463;BMP180;59266;52.608;13.260;2024-02-23T04:11:28;98563.00;;;9.40
71463;BMP180;59266;52.608;13.260;2024-02-23T04:13:54;98589.00;;;9.40
71463;BMP180;59266;52.608;13.260;2024-02-23T04:16:24;98599.00;;;9.30
71463;BMP180;59266;52.608;13.260;2024-02-23T04:18:51;98588.00;;;9.20
71463;BMP180;59266;52.608;13.260;2024-02-23T04:21:18;98602.00;;;9.20
71463;BMP180;59266;52.608;13.260;2024-02-23T04:23:45;98609.00;;;9.10
71463;BMP180;59266;52.608;13.260;2024-02-23T04:26:12;98622.00;;;9.10
71463;BMP180;59266;52.608;13.260;2024-02-23T04:28:39;98626.00;;;9.10
71463;BMP180;59266;52.608;13.260;2024-02-23T04:31:08;98619.00;;;9.10
71463;BMP180;59266;52.608;13.260;2024-02-23T04:33:36;98625.00;;;9.10
71463;BMP180;59266;52.608;13.260;2024-02-23T04:36:03;98656.00;;;9.10
71463;BMP180;59266;52.608;13.260;2024-02-23T04:38:31;98645.00;;;9.10
71463;BMP180;59266;52.608;13.260;2024-02-23T04:40:58;98656.00;;;9.10
71463;BMP180;59266;52.608;13.260;2024-02-23T04:43:25;98670.00;;;9.10
71463;BMP180;59266;52.608;13.260;2024-02-23T04:45:51;98684.00;;;9.00
71463;BMP180;59266;52.608;13.260;2024-02-23T04:48:18;98686.00;;;9.00
71463;BMP180;59266;52.608;13.260;2024-02-23T04:50:45;98693.00;;;8.90
71463;BMP180;59266;52.608;13.260;2024-02-23T04:53:11;98700.00;;;8.80
71463;BMP180;59266;52.608;13.260;2024-02-23T04:55:38;98706.00;;;8.80
71463;BMP180;59266;52.608;13.260;2024-02-23T04:58:06;98721.00;;;8.80
71463;BMP180;59266;52.608;13.260;2024-02-23T05:00:32;98726.00;;;8.80
71463;BMP180;59266;52.608;13.260;2024-02-23T05:03:00;98725.00;;;8.70
71463;BMP180;59266;52.608;13.260;2024-02-23T05:05:30;98740.00;;;8.70
71463;BMP180;59266;52.608;13.260;2024-02-23T05:07:57;98759.00;;;8.70
71463;BMP180;59266;52.608;13.260;2024-02-23T05:10:23;98756.00;;;8.60
71463;BMP180;59266;52.608;13.260;2024-02-23T05:12:50;98758.00;;;8.50
71463;BMP180;59266;52.608;13.260;2024-02-23T05:15:17;98760.00;;;8.40
71463;BMP180;59266;52.608;13.260;2024-02-23T05:17:43;98773.00;;;8.30
71463;BMP180;59266;52.608;13.260;2024-02-23T05:20:11;98771.00;;;8.20
71463;BMP180;59266;52.608;13.260;2024-02-23T05:22:38;98794.00;;;8.20
71463;BMP180;59266;52.608;13.260;2024-02-23T05:25:05;98787.00;;;8.10
71463;BMP180;59266;52.608;13.260;2024-02-23T05:27:32;98797.00;;;8.10
71463;BMP180;59266;52.608;13.260;2024-02-23T05:29:59;98806.00;;;7.90
71463;BMP180;59266;52.608;13.260;2024-02-23T05:32:26;98823.00;;;7.90
71463;BMP180;59266;52.608;13.260;2024-02-23T05:34:52;98826.00;;;7.80
71463;BMP180;59266;52.608;13.260;2024-02-23T05:37:20;98823.00;;;7.80
71463;BMP180;59266;52.608;13.260;2024-02-23T05:39:47;98818.00;;;7.80
71463;BMP180;59266;52.608;13.260;2024-02-23T05:42:14;98837.00;;;7.70
71463;BMP180;59266;52.608;13.260;2024-02-23T05:44:44;98864.00;;;7.60
71463;BMP180;59266;52.608;13.260;2024-02-23T05:47:11;98859.00;;;7.60
71463;BMP180;59266;52.608;13.260;2024-02-23T05:49:40;98857.00;;;7.60
71463;BMP180;59266;52.608;13.260;2024-02-23T05:52:07;98870.00;;;7.60
71463;BMP180;59266;52.608;13.260;2024-02-23T05:54:34;98883.00;;;7.50
71463;BMP180;59266;52.608;13.260;2024-02-23T05:57:01;98892.00;;;7.50
71463;BMP180;59266;52.608;13.260;2024-02-23T05:59:28;98889.00;;;7.50
71463;BMP180;59266;52.608;13.260;2024-02-23T06:01:54;98899.00;;;7.50
71463;BMP180;59266;52.608;13.260;2024-02-23T06:04:24;98900.00;;;7.40
71463;BMP180;59266;52.608;13.260;2024-02-23T06:06:51;98891.00;;;7.40
71463;BMP180;59266;52.608;13.260;2024-02-23T06:09:18;98910.00;;;7.40
71463;BMP180;59266;52.608;13.260;2024-02-23T06:11:45;98911.00;;;7.50
71463;BMP180;59266;52.608;13.260;2024-02-23T06:14:12;98923.00;;;7.40
71463;BMP180;59266;52.608;13.260;2024-02-23T06:16:39;98920.00;;;7.30
71463;BMP180;59266;52.608;13.260;2024-02-23T06:19:08;98942.00;;;7.30
71463;BMP180;59266;52.608;13.260;2024-02-23T06:21:35;98960.00;;;7.30
71463;BMP180;59266;52.608;13.260;2024-02-23T06:24:03;98978.00;;;7.30
71463;BMP180;59266;52.608;13.260;2024-02-23T06:26:30;98979.00;;;7.30
71463;BMP180;59266;52.608;13.260;2024-02-23T06:28:57;98970.00;;;7.20
71463;BMP180;59266;52.608;13.260;2024-02-23T06:31:23;98981.00;;;7.20
71463;BMP180;59266;52.608;13.260;2024-02-23T06:33:50;98986.00;;;7.30
71463;BMP180;59266;52.608;13.260;2024-02-23T06:36:18;98982.00;;;7.20
71463;BMP180;59266;52.608;13.260;2024-02-23T06:38:45;98985.00;;;7.20
71463;BMP180;59266;52.608;13.260;2024-02-23T06:41:11;98983.00;;;7.20
71463;BMP180;59266;52.608;13.260;2024-02-23T06:43:38;98986.00;;;7.30
71463;BMP180;59266;52.608;13.260;2024-02-23T06:46:07;99001.00;;;7.30
71463;BMP180;59266;52.608;13.260;2024-02-23T06:48:35;99006.00;;;7.50
71463;BMP180;59266;52.608;13.260;2024-02-23T06:51:02;99007.00;;;7.50
71463;BMP180;59266;52.608;13.260;2024-02-23T07:00:20;99014.00;;;7.80
71463;BMP180;59266;52.608;13.260;2024-02-23T07:02:47;99018.00;;;8.00
71463;BMP180;59266;52.608;13.260;2024-02-23T07:05:14;99003.00;;;8.20
71463;BMP180;59266;52.608;13.260;2024-02-23T07:07:41;98956.00;;;8.90
71463;BMP180;59266;52.608;13.260;2024-02-23T07:10:08;98958.00;;;10.40
71463;BMP180;59266;52.608;13.260;2024-02-23T07:12:35;99030.00;;;10.60
71463;BMP180;59266;52.608;13.260;2024-02-23T07:15:01;99047.00;;;9.70
71463;BMP180;59266;52.608;13.260;2024-02-23T07:17:28;99032.00;;;10.40
71463;BMP180;59266;52.608;13.260;2024-02-23T07:19:55;99042.00;;;9.90
71463;BMP180;59266;52.608;13.260;2024-02-23T07:22:29;99058.00;;;9.80
71463;BMP180;59266;52.608;13.260;2024-02-23T07:24:56;99055.00;;;9.70
71463;BMP180;59266;52.608;13.260;2024-02-23T07:27:22;99073.00;;;9.50
71463;BMP180;59266;52.608;13.260;2024-02-23T07:29:49;99068.00;;;9.00
71463;BMP180;59266;52.608;13.260;2024-02-23T07:32:15;99079.00;;;8.70
71463;BMP180;59266;52.608;13.260;2024-02-23T07:34:42;99076.00;;;8.50
71463;BMP180;59266;52.608;13.260;2024-02-23T07:37:09;99073.00;;;8.60
71463;BMP180;59266;52.608;13.260;2024-02-23T07:39:35;99070.00;;;8.50
71463;BMP180;59266;52.608;13.260;2024-02-23T07:42:02;99069.00;;;8.80
71463;BMP180;59266;52.608;13.260;2024-02-23T07:44:29;99060.00;;;8.80
71463;BMP180;59266;52.608;13.260;2024-02-23T07:46:56;99064.00;;;8.90
71463;BMP180;59266;52.608;13.260;2024-02-23T07:49:24;99070.00;;;9.60
71463;BMP180;59266;52.608;13.260;2024-02-23T07:51:51;99070.00;;;10.00
71463;BMP180;59266;52.608;13.260;2024-02-23T07:54:18;99074.00;;;9.80
71463;BMP180;59266;52.608;13.260;2024-02-23T07:56:44;99088.00;;;10.70
71463;BMP180;59266;52.608;13.260;2024-02-23T07:59:11;99085.00;;;11.00
71463;BMP180;59266;52.608;13.260;2024-02-23T08:01:38;99094.00;;;13.50
71463;BMP180;59266;52.608;13.260;2024-02-23T08:04:06;99104.00;;;13.50
71463;BMP180;59266;52.608;13.260;2024-02-23T08:06:33;99102.00;;;14.30
71463;BMP180;59266;52.608;13.260;2024-02-23T08:08:59;99109.00;;;16.30
71463;BMP180;59266;52.608;13.260;2024-02-23T08:11:26;99116.00;;;16.60
71463;BMP180;59266;52.608;13.260;2024-02-23T08:13:53;99128.00;;;16.50
71463;BMP180;59266;52.608;13.260;2024-02-23T08:16:19;99132.00;;;14.40
71463;BMP180;59266;52.608;13.260;2024-02-23T08:18:46;99126.00;;;15.30
71463;BMP180;59266;52.608;13.260;2024-02-23T08:21:12;99132.00;;;15.20
71463;BMP180;59266;52.608;13.260;2024-02-23T08:23:39;99139.00;;;13.70
71463;BMP180;59266;52.608;13.260;2024-02-23T08:26:06;99135.00;;;15.10
71463;BMP180;59266;52.608;13.260;2024-02-23T08:28:32;99142.00;;;16.80
71463;BMP180;59266;52.608;13.260;2024-02-23T08:30:59;99157.00;;;16.80
71463;BMP180;59266;52.608;13.260;2024-02-23T08:33:26;99169.00;;;15.10
71463;BMP180;59266;52.608;13.260;2024-02-23T08:35:53;99160.00;;;14.30
71463;BMP180;59266;52.608;13.260;2024-02-23T08:38:19;99168.00;;;14.90
71463;BMP180;59266;52.608;13.260;2024-02-23T08:40:46;99176.00;;;13.80
71463;BMP180;59266;52.608;13.260;2024-02-23T08:43:13;99162.00;;;13.60
71463;BMP180;59266;52.608;13.260;2024-02-23T08:45:41;99167.00;;;14.10
71463;BMP180;59266;52.608;13.260;2024-02-23T08:48:07;99176.00;;;13.10
71463;BMP180;59266;52.608;13.260;2024-02-23T08:50:35;99175.00;;;11.90
71463;BMP180;59266;52.608;13.260;2024-02-23T08:53:02;99174.00;;;11.70
71463;BMP180;59266;52.608;13.260;2024-02-23T08:55:29;99168.00;;;12.20
71463;BMP180;59266;52.608;13.260;2024-02-23T08:57:55;99188.00;;;12.40
71463;BMP180;59266;52.608;13.260;2024-02-23T09:00:22;99190.00;;;11.90
71463;BMP180;59266;52.608;13.260;2024-02-23T09:02:50;99178.00;;;12.00
71463;BMP180;59266;52.608;13.260;2024-02-23T09:05:20;99183.00;;;11.80
71463;BMP180;59266;52.608;13.260;2024-02-23T09:07:47;99182.00;;;11.60
71463;BMP180;59266;52.608;13.260;2024-02-23T09:10:13;99183.00;;;11.90
71463;BMP180;59266;52.608;13.260;2024-02-23T09:12:40;99184.00;;;12.40
71463;BMP180;59266;52.608;13.260;2024-02-23T09:15:07;99199.00;;;11.20
71463;BMP180;59266;52.608;13.260;2024-02-23T09:17:34;99196.00;;;11.00
71463;BMP180;59266;52.608;13.260;2024-02-23T09:20:00;99187.00;;;11.10
71463;BMP180;59266;52.608;13.260;2024-02-23T09:22:27;99191.00;;;11.00
71463;BMP180;59266;52.608;13.260;2024-02-23T09:24:54;99196.00;;;11.00
71463;BMP180;59266;52.608;13.260;2024-02-23T09:27:23;99213.00;;;10.80
71463;BMP180;59266;52.608;13.260;2024-02-23T09:29:49;99211.00;;;11.10
71463;BMP180;59266;52.608;13.260;2024-02-23T09:32:17;99207.00;;;11.60
71463;BMP180;59266;52.608;13.260;2024-02-23T09:34:43;99213.00;;;11.70
71463;BMP180;59266;52.608;13.260;2024-02-23T09:37:10;99202.00;;;11.50
71463;BMP180;59266;52.608;13.260;2024-02-23T09:39:37;99209.00;;;11.30
71463;BMP180;59266;52.608;13.260;2024-02-23T09:42:09;99220.00;;;11.70
71463;BMP180;59266;52.608;13.260;2024-02-23T09:44:36;99232.00;;;11.10
71463;BMP180;59266;52.608;13.260;2024-02-23T09:47:04;99242.00;;;11.40
71463;BMP180;59266;52.608;13.260;2024-02-23T09:49:39;99245.00;;;11.20
71463;BMP180;59266;52.608;13.260;2024-02-23T09:52:09;99239.00;;;10.90
71463;BMP180;59266;52.608;13.260;2024-02-23T09:54:39;99251.00;;;11.20
71463;BMP180;59266;52.608;13.260;2024-02-23T09:57:10;99265.00;;;11.20
71463;BMP180;59266;52.608;13.260;2024-02-23T09:59:36;99270.00;;;11.60
71463;BMP180;59266;52.608;13.260;2024-02-23T10:02:08;99282.00;;;11.50
71463;BMP180;59266;52.608;13.260;2024-02-23T10:04:39;99289.00;;;11.10
71463;BMP180;59266;52.608;13.260;2024-02-23T10:07:06;99280.00;;;10.90
71463;BMP180;59266;52.608;13.260;2024-02-23T10:09:33;99280.00;;;10.70
71463;BMP180;59266;52.608;13.260;2024-02-23T10:12:00;99262.00;;;10.90
71463;BMP180;59266;52.608;13.260;2024-02-23T10:14:27;99263.00;;;11.30
71463;BMP180;59266;52.608;13.260;2024-02-23T10:16:54;99285.00;;;11.30
71463;BMP180;59266;52.608;13.260;2024-02-23T10:19:22;99285.00;;;11.20
71463;BMP180;59266;52.608;13.260;2024-02-23T10:21:49;99289.00;;;11.20
71463;BMP180;59266;52.608;13.260;2024-02-23T10:24:16;99279.00;;;11.80
71463;BMP180;59266;52.608;13.260;2024-02-23T10:26:44;99285.00;;;12.30
71463;BMP180;59266;52.608;13.260;2024-02-23T10:29:11;99287.00;;;12.10
71463;BMP180;59266;52.608;13.260;2024-02-23T10:31:39;99284.00;;;12.10
71463;BMP180;59266;52.608;13.260;2024-02-23T10:34:07;99287.00;;;11.70
71463;BMP180;59266;52.608;13.260;2024-02-23T10:36:40;99295.00;;;11.60
71463;BMP180;59266;52.608;13.260;2024-02-23T10:39:09;99290.00;;;11.50
71463;BMP180;59266;52.608;13.260;2024-02-23T10:41:36;99284.00;;;11.20
71463;BMP180;59266;52.608;13.260;2024-02-23T10:44:05;99272.00;;;12.10
71463;BMP180;59266;52.608;13.260;2024-02-23T10:46:32;99277.00;;;12.30
71463;BMP180;59266;52.608;13.260;2024-02-23T10:49:00;99274.00;;;11.90
71463;BMP180;59266;52.608;13.260;2024-02-23T10:51:28;99293.00;;;13.10
71463;BMP180;59266;52.608;13.260;2024-02-23T10:53:55;99289.00;;;12.60
71463;BMP180;59266;52.608;13.260;2024-02-23T10:56:21;99295.00;;;12.20
71463;BMP180;59266;52.608;13.260;2024-02-23T10:58:48;99286.00;;;12.10
71463;BMP180;59266;52.608;13.260;2024-02-23T11:01:16;99285.00;;;12.60
71463;BMP180;59266;52.608;13.260;2024-02-23T11:03:45;99280.00;;;12.60
71463;BMP180;59266;52.608;13.260;2024-02-23T11:06:16;99296.00;;;13.10
71463;BMP180;59266;52.608;13.260;2024-02-23T11:08:47;99288.00;;;13.10
71463;BMP180;59266;52.608;13.260;2024-02-23T11:11:16;99290.00;;;12.90
71463;BMP180;59266;52.608;13.260;2024-02-23T11:13:44;99296.00;;;13.60
71463;BMP180;59266;52.608;13.260;2024-02-23T11:16:21;99284.00;;;13.30
71463;BMP180;59266;52.608;13.260;2024-02-23T11:18:48;99305.00;;;13.10
71463;BMP180;59266;52.608;13.260;2024-02-23T11:21:15;99298.00;;;12.80
71463;BMP180;59266;52.608;13.260;2024-02-23T11:23:42;99288.00;;;12.40
71463;BMP180;59266;52.608;13.260;2024-02-23T11:26:10;99308.00;;;12.90
71463;BMP180;59266;52.608;13.260;2024-02-23T11:28:49;99326.00;;;12.80
71463;BMP180;59266;52.608;13.260;2024-02-23T11:31:20;99317.00;;;12.50
71463;BMP180;59266;52.608;13.260;2024-02-23T11:33:53;99325.00;;;12.10
71463;BMP180;59266;52.608;13.260;2024-02-23T11:36:30;99331.00;;;12.20
71463;BMP180;59266;52.608;13.260;2024-02-23T11:38:59;99323.00;;;12.10
71463;BMP180;59266;52.608;13.260;2024-02-23T11:41:27;99309.00;;;12.70
71463;BMP180;59266;52.608;13.260;2024-02-23T11:43:55;99319.00;;;12.70
71463;BMP180;59266;52.608;13.260;2024-02-23T11:46:22;99312.00;;;12.40
71463;BMP180;59266;52.608;13.260;2024-02-23T11:48:49;99309.00;;;12.40
71463;BMP180;59266;52.608;13.260;2024-02-23T11:51:29;99306.00;;;12.60
71463;BMP180;59266;52.608;13.260;2024-02-23T11:53:57;99314.00;;;13.50
71463;BMP180;59266;52.608;13.260;2024-02-23T11:56:25;99318.00;;;13.40
71463;BMP180;59266;52.608;13.260;2024-02-23T11:58:53;99323.00;;;13.30
71463;BMP180;59266;52.608;13.260;2024-02-23T12:01:20;99333.00;;;13.00
71463;BMP180;59266;52.608;13.260;2024-02-23T12:03:47;99318.00;;;12.80
71463;BMP180;59266;52.608;13.260;2024-02-23T12:06:16;99325.00;;;12.90
71463;BMP180;59266;52.608;13.260;2024-02-23T12:08:43;99321.00;;;12.50
71463;BMP180;59266;52.608;13.260;2024-02-23T12:11:11;99318.00;;;12.40
71463;BMP180;59266;52.608;13.260;2024-02-23T12:13:40;99327.00;;;12.50
71463;BMP180;59266;52.608;13.260;2024-02-23T12:16:07;99330.00;;;12.60
71463;BMP180;59266;52.608;13.260;2024-02-23T12:18:35;99332.00;;;12.50
71463;BMP180;59266;52.608;13.260;2024-02-23T12:21:06;99331.00;;;12.60
71463;BMP180;59266;52.608;13.260;2024-02-23T12:26:07;99336.00;;;12.60
71463;BMP180;59266;52.608;13.260;2024-02-23T12:28:34;99338.00;;;12.30
71463;BMP180;59266;52.608;13.260;2024-02-23T12:31:04;99339.00;;;12.10
71463;BMP180;59266;52.608;13.260;2024-02-23T12:33:32;99345.00;;;11.70
71463;BMP180;59266;52.608;13.260;2024-02-23T12:36:00;99353.00;;;11.80
71463;BMP180;59266;52.608;13.260;2024-02-23T12:38:26;99336.00;;;11.70
71463;BMP180;59266;52.608;13.260;2024-02-23T12:40:53;99347.00;;;11.90
71463;BMP180;59266;52.608;13.260;2024-02-23T12:43:20;99353.00;;;12.00
71463;BMP180;59266;52.608;13.260;2024-02-23T12:45:48;99354.00;;;12.10
71463;BMP180;59266;52.608;13.260;2024-02-23T12:48:18;99359.00;;;12.50
71463;BMP180;59266;52.608;13.260;2024-02-23T12:50:49;99378.00;;;11.90
71463;BMP180;59266;52.608;13.260;2024-02-23T12:53:41;99368.00;;;12.00
71463;BMP180;59266;52.608;13.260;2024-02-23T12:56:13;99377.00;;;12.30
71463;BMP180;59266;52.608;13.260;2024-02-23T12:58:43;99367.00;;;11.90
71463;BMP180;59266;52.608;13.260;2024-02-23T13:01:10;99367.00;;;12.10
71463;BMP180;59266;52.608;13.260;2024-02-23T13:03:38;99375.00;;;12.40
71463;BMP180;59266;52.608;13.260;2024-02-23T13:06:07;99383.00;;;12.10
71463;BMP180;59266;52.608;13.260;2024-02-23T13:08:34;99375.00;;;11.70
71463;BMP180;59266;52.608;13.260;2024-02-23T13:11:01;99373.00;;;11.80
71463;BMP180;59266;52.608;13.260;2024-02-23T13:13:28;99375.00;;;11.80
71463;BMP180;59266;52.608;13.260;2024-02-23T13:15:55;99373.00;;;11.40
71463;BMP180;59266;52.608;13.260;2024-02-23T13:18:24;99375.00;;;11.50
71463;BMP180;59266;52.608;13.260;2024-02-23T13:20:51;99385.00;;;11.90
71463;BMP180;59266;52.608;13.260;2024-02-23T13:23:18;99371.00;;;11.90
71463;BMP180;59266;52.608;13.260;2024-02-23T13:25:45;99373.00;;;11.60
71463;BMP180;59266;52.608;13.260;2024-02-23T13:28:14;99378.00;;;11.50
71463;BMP180;59266;52.608;13.260;2024-02-23T13:30:41;99381.00;;;11.30
71463;BMP180;59266;52.608;13.260;2024-02-23T13:33:08;99388.00;;;11.00
71463;BMP180;59266;52.608;13.260;2024-02-23T13:35:37;99382.00;;;11.60
71463;BMP180;59266;52.608;13.260;2024-02-23T13:38:05;99389.00;;;11.20
71463;BMP180;59266;52.608;13.260;2024-02-23T13:40:34;99390.00;;;11.40
71463;BMP180;59266;52.608;13.260;2024-02-23T13:43:00;99381.00;;;11.20
71463;BMP180;59266;52.608;13.260;2024-02-23T13:45:27;99384.00;;;11.50
71463;BMP180;59266;52.608;13.260;2024-02-23T13:48:02;99378.00;;;11.40
71463;BMP180;59266;52.608;13.260;2024-02-23T13:50:30;99361.00;;;11.30
71463;BMP180;59266;52.608;13.260;2024-02-23T13:52:57;99366.00;;;11.20
71463;BMP180;59266;52.608;13.260;2024-02-23T13:55:24;99367.00;;;11.30
71463;BMP180;59266;52.608;13.260;2024-02-23T13:57:51;99378.00;;;11.10
71463;BMP180;59266;52.608;13.260;2024-02-23T14:00:18;99381.00;;;11.20
71463;BMP180;59266;52.608;13.260;2024-02-23T14:02:46;99385.00;;;11.20
71463;BMP180;59266;52.608;13.260;2024-02-23T14:05:13;99377.00;;;11.00
71463;BMP180;59266;52.608;13.260;2024-02-23T14:07:42;99381.00;;;11.00
71463;BMP180;59266;52.608;13.260;2024-02-23T14:10:08;99368.00;;;10.80
71463;BMP180;59266;52.608;13.260;2024-02-23T14:12:35;99386.00;;;10.70